sensor_id;sensor_type;location;lat;lon;timestamp;P1;durP1;ratioP1;P2;durP2;ratioP2
21297;SDS011;10808;48.010;11.326;2022-07-04T00:00:44;3.25;;;2.10;;
21297;SDS011;10808;48.010;11.326;2022-07-04T00:03:10;3.30;;;2.17;;
21297;SDS011;10808;48.010;11.326;2022-07-04T00:05:36;2.60;;;2.40;;
21297;SDS011;10808;48.010;11.326;2022-07-04T00:08:02;4.78;;;2.42;;
21297;SDS011;10808;48.010;11.326;2022-07-04T00:10:28;3.03;;;2.30;;
21297;SDS011;10808;48.010;11.326;2022-07-04T00:12:55;2.53;;;2.17;;
21297;SDS011;10808;48.010;11.326;2022-07-04T00:15:22;2.85;;;2.25;;
21297;SDS011;10808;48.010;11.326;2022-07-04T00:17:48;2.70;;;2.20;;
21297;SDS011;10808;48.010;11.326;2022-07-04T00:20:14;3.60;;;2.60;;
21297;SDS011;10808;48.010;11.326;2022-07-04T00:22:41;2.65;;;2.22;;
21297;SDS011;10808;48.010;11.326;2022-07-04T00:25:07;3.75;;;2.30;;
21297;SDS011;10808;48.010;11.326;2022-07-04T00:27:34;4.10;;;2.30;;
21297;SDS011;10808;48.010;11.326;2022-07-04T00:30:00;4.35;;;2.10;;
21297;SDS011;10808;48.010;11.326;2022-07-04T00:32:27;3.70;;;2.20;;
21297;SDS011;10808;48.010;11.326;2022-07-04T00:34:53;2.60;;;2.17;;
21297;SDS011;10808;48.010;11.326;2022-07-04T00:37:19;2.05;;;1.85;;
21297;SDS011;10808;48.010;11.326;2022-07-04T00:39:45;2.95;;;2.00;;
21297;SDS011;10808;48.010;11.326;2022-07-04T00:42:11;3.60;;;2.00;;
21297;SDS011;10808;48.010;11.326;2022-07-04T00:44:38;2.63;;;1.80;;
21297;SDS011;10808;48.010;11.326;2022-07-04T00:47:04;1.95;;;1.83;;
21297;SDS011;10808;48.010;11.326;2022-07-04T00:49:31;2.20;;;1.90;;
21297;SDS011;10808;48.010;11.326;2022-07-04T00:51:57;2.25;;;2.05;;
21297;SDS011;10808;48.010;11.326;2022-07-04T00:54:25;2.72;;;2.00;;
21297;SDS011;10808;48.010;11.326;2022-07-04T00:56:55;4.80;;;2.10;;
21297;SDS011;10808;48.010;11.326;2022-07-04T00:59:22;4.10;;;2.00;;
21297;SDS011;10808;48.010;11.326;2022-07-04T01:01:49;4.75;;;2.20;;
21297;SDS011;10808;48.010;11.326;2022-07-04T01:04:15;3.83;;;2.40;;
21297;SDS011;10808;48.010;11.326;2022-07-04T01:06:42;2.20;;;2.00;;
21297;SDS011;10808;48.010;11.326;2022-07-04T01:09:08;2.20;;;2.00;;
21297;SDS011;10808;48.010;11.326;2022-07-04T01:11:34;2.70;;;2.20;;
21297;SDS011;10808;48.010;11.326;2022-07-04T01:14:01;3.08;;;2.20;;
21297;SDS011;10808;48.010;11.326;2022-07-04T01:16:27;2.95;;;2.20;;
21297;SDS011;10808;48.010;11.326;2022-07-04T01:18:54;2.20;;;2.00;;
21297;SDS011;10808;48.010;11.326;2022-07-04T01:21:21;3.92;;;2.47;;
21297;SDS011;10808;48.010;11.326;2022-07-04T01:23:47;2.97;;;2.40;;
21297;SDS011;10808;48.010;11.326;2022-07-04T01:39:43;2.58;;;2.15;;
21297;SDS011;10808;48.010;11.326;2022-07-04T01:42:10;3.78;;;2.10;;
21297;SDS011;10808;48.010;11.326;2022-07-04T01:44:36;2.83;;;2.15;;
21297;SDS011;10808;48.010;11.326;2022-07-04T01:47:02;2.53;;;2.13;;
21297;SDS011;10808;48.010;11.326;2022-07-04T01:49:28;2.90;;;2.30;;
21297;SDS011;10808;48.010;11.326;2022-07-04T01:51:54;2.88;;;2.03;;
21297;SDS011;10808;48.010;11.326;2022-07-04T01:54:21;3.88;;;1.88;;
21297;SDS011;10808;48.010;11.326;2022-07-04T01:56:47;2.40;;;2.10;;
21297;SDS011;10808;48.010;11.326;2022-07-04T01:59:13;2.58;;;2.17;;
21297;SDS011;10808;48.010;11.326;2022-07-04T02:01:39;3.53;;;2.35;;
21297;SDS011;10808;48.010;11.326;2022-07-04T02:12:48;2.10;;;1.90;;
21297;SDS011;10808;48.010;11.326;2022-07-04T02:15:33;2.95;;;2.10;;
21297;SDS011;10808;48.010;11.326;2022-07-04T02:18:05;2.37;;;1.90;;
21297;SDS011;10808;48.010;11.326;2022-07-04T02:36:42;3.37;;;1.93;;
21297;SDS011;10808;48.010;11.326;2022-07-04T02:39:08;2.00;;;1.60;;
21297;SDS011;10808;48.010;11.326;2022-07-04T02:41:34;2.67;;;1.80;;
21297;SDS011;10808;48.010;11.326;2022-07-04T02:44:00;3.65;;;1.92;;
21297;SDS011;10808;48.010;11.326;2022-07-04T02:46:27;2.75;;;1.88;;
21297;SDS011;10808;48.010;11.326;2022-07-04T02:48:53;3.03;;;1.70;;
21297;SDS011;10808;48.010;11.326;2022-07-04T02:51:19;3.30;;;1.90;;
21297;SDS011;10808;48.010;11.326;2022-07-04T02:53:46;2.87;;;1.90;;
21297;SDS011;10808;48.010;11.326;2022-07-04T02:56:12;3.85;;;2.00;;
21297;SDS011;10808;48.010;11.326;2022-07-04T02:58:38;4.20;;;2.00;;
21297;SDS011;10808;48.010;11.326;2022-07-04T03:01:04;2.70;;;2.00;;
21297;SDS011;10808;48.010;11.326;2022-07-04T03:03:30;2.65;;;1.88;;
21297;SDS011;10808;48.010;11.326;2022-07-04T03:05:57;1.90;;;1.80;;
21297;SDS011;10808;48.010;11.326;2022-07-04T03:08:23;2.65;;;1.90;;
21297;SDS011;10808;48.010;11.326;2022-07-04T03:10:49;2.20;;;2.00;;
21297;SDS011;10808;48.010;11.326;2022-07-04T03:13:16;3.25;;;2.00;;
21297;SDS011;10808;48.010;11.326;2022-07-04T03:15:43;2.65;;;2.03;;
21297;SDS011;10808;48.010;11.326;2022-07-04T03:18:09;2.15;;;1.88;;
21297;SDS011;10808;48.010;11.326;2022-07-04T03:20:36;2.88;;;2.13;;
21297;SDS011;10808;48.010;11.326;2022-07-04T03:23:02;1.80;;;1.70;;
21297;SDS011;10808;48.010;11.326;2022-07-04T03:25:28;1.85;;;1.75;;
21297;SDS011;10808;48.010;11.326;2022-07-04T03:27:54;2.83;;;2.00;;
21297;SDS011;10808;48.010;11.326;2022-07-04T03:30:20;2.20;;;1.90;;
21297;SDS011;10808;48.010;11.326;2022-07-04T03:32:48;3.33;;;1.75;;
21297;SDS011;10808;48.010;11.326;2022-07-04T03:35:14;2.00;;;1.80;;
21297;SDS011;10808;48.010;11.326;2022-07-04T03:37:40;3.72;;;1.88;;
21297;SDS011;10808;48.010;11.326;2022-07-04T03:40:06;2.33;;;1.88;;
21297;SDS011;10808;48.010;11.326;2022-07-04T03:42:33;1.92;;;1.60;;
21297;SDS011;10808;48.010;11.326;2022-07-04T03:44:59;2.05;;;1.70;;
21297;SDS011;10808;48.010;11.326;2022-07-04T03:47:25;2.95;;;1.92;;
21297;SDS011;10808;48.010;11.326;2022-07-04T03:49:51;3.08;;;1.80;;
21297;SDS011;10808;48.010;11.326;2022-07-04T03:52:17;2.25;;;1.90;;
21297;SDS011;10808;48.010;11.326;2022-07-04T03:54:43;2.63;;;1.92;;
21297;SDS011;10808;48.010;11.326;2022-07-04T03:57:09;4.30;;;1.90;;
21297;SDS011;10808;48.010;11.326;2022-07-04T03:59:35;5.30;;;1.92;;
21297;SDS011;10808;48.010;11.326;2022-07-04T04:02:01;2.88;;;1.90;;
21297;SDS011;10808;48.010;11.326;2022-07-04T04:04:27;1.70;;;1.60;;
21297;SDS011;10808;48.010;11.326;2022-07-04T04:07:12;2.55;;;1.70;;
21297;SDS011;10808;48.010;11.326;2022-07-04T04:09:38;2.08;;;1.73;;
21297;SDS011;10808;48.010;11.326;2022-07-04T04:12:04;1.75;;;1.65;;
21297;SDS011;10808;48.010;11.326;2022-07-04T04:14:30;2.10;;;1.65;;
21297;SDS011;10808;48.010;11.326;2022-07-04T04:16:56;2.55;;;1.67;;
21297;SDS011;10808;48.010;11.326;2022-07-04T04:19:22;2.17;;;1.77;;
21297;SDS011;10808;48.010;11.326;2022-07-04T04:21:48;1.70;;;1.60;;
21297;SDS011;10808;48.010;11.326;2022-07-04T04:24:14;2.15;;;1.80;;
21297;SDS011;10808;48.010;11.326;2022-07-04T04:26:40;2.60;;;1.80;;
21297;SDS011;10808;48.010;11.326;2022-07-04T04:29:06;1.90;;;1.80;;
21297;SDS011;10808;48.010;11.326;2022-07-04T04:31:32;2.17;;;1.67;;
21297;SDS011;10808;48.010;11.326;2022-07-04T04:33:58;2.35;;;1.80;;
21297;SDS011;10808;48.010;11.326;2022-07-04T04:36:25;3.10;;;1.60;;
21297;SDS011;10808;48.010;11.326;2022-07-04T04:38:51;1.75;;;1.60;;
21297;SDS011;10808;48.010;11.326;2022-07-04T04:41:17;4.50;;;1.67;;
21297;SDS011;10808;48.010;11.326;2022-07-04T04:43:43;2.05;;;1.52;;
21297;SDS011;10808;48.010;11.326;2022-07-04T04:46:09;2.38;;;2.10;;
21297;SDS011;10808;48.010;11.326;2022-07-04T04:48:35;3.45;;;1.67;;
21297;SDS011;10808;48.010;11.326;2022-07-04T04:51:01;2.10;;;1.65;;
21297;SDS011;10808;48.010;11.326;2022-07-04T04:53:27;2.83;;;1.58;;
21297;SDS011;10808;48.010;11.326;2022-07-04T04:55:54;6.55;;;1.63;;
21297;SDS011;10808;48.010;11.326;2022-07-04T04:58:21;1.90;;;1.57;;
21297;SDS011;10808;48.010;11.326;2022-07-04T05:00:47;3.38;;;1.70;;
21297;SDS011;10808;48.010;11.326;2022-07-04T05:03:15;2.27;;;1.70;;
21297;SDS011;10808;48.010;11.326;2022-07-04T05:05:42;2.45;;;1.60;;
21297;SDS011;10808;48.010;11.326;2022-07-04T05:08:09;2.03;;;1.70;;
21297;SDS011;10808;48.010;11.326;2022-07-04T05:10:35;2.10;;;1.60;;
21297;SDS011;10808;48.010;11.326;2022-07-04T05:13:01;4.07;;;1.80;;
21297;SDS011;10808;48.010;11.326;2022-07-04T05:15:28;2.63;;;1.50;;
21297;SDS011;10808;48.010;11.326;2022-07-04T05:17:54;3.05;;;1.65;;
21297;SDS011;10808;48.010;11.326;2022-07-04T05:20:20;4.32;;;1.60;;
21297;SDS011;10808;48.010;11.326;2022-07-04T05:22:46;2.20;;;1.67;;
21297;SDS011;10808;48.010;11.326;2022-07-04T05:25:12;2.00;;;1.80;;
21297;SDS011;10808;48.010;11.326;2022-07-04T05:27:38;3.60;;;1.73;;
21297;SDS011;10808;48.010;11.326;2022-07-04T05:30:05;1.85;;;1.67;;
21297;SDS011;10808;48.010;11.326;2022-07-04T05:32:32;3.05;;;1.85;;
21297;SDS011;10808;48.010;11.326;2022-07-04T05:34:58;3.13;;;1.77;;
21297;SDS011;10808;48.010;11.326;2022-07-04T05:37:24;1.90;;;1.80;;
21297;SDS011;10808;48.010;11.326;2022-07-04T05:39:51;1.83;;;1.70;;
21297;SDS011;10808;48.010;11.326;2022-07-04T05:42:17;2.30;;;1.90;;
21297;SDS011;10808;48.010;11.326;2022-07-04T05:44:45;3.13;;;1.92;;
21297;SDS011;10808;48.010;11.326;2022-07-04T05:47:11;3.10;;;2.08;;
21297;SDS011;10808;48.010;11.326;2022-07-04T05:49:37;1.92;;;1.77;;
21297;SDS011;10808;48.010;11.326;2022-07-04T05:52:03;3.45;;;2.03;;
21297;SDS011;10808;48.010;11.326;2022-07-04T05:54:29;3.22;;;1.98;;
21297;SDS011;10808;48.010;11.326;2022-07-04T05:56:55;2.90;;;2.00;;
21297;SDS011;10808;48.010;11.326;2022-07-04T05:59:21;2.95;;;2.13;;
21297;SDS011;10808;48.010;11.326;2022-07-04T06:01:47;2.83;;;2.05;;
21297;SDS011;10808;48.010;11.326;2022-07-04T06:04:13;3.08;;;2.10;;
21297;SDS011;10808;48.010;11.326;2022-07-04T06:06:39;3.20;;;2.08;;
21297;SDS011;10808;48.010;11.326;2022-07-04T06:09:06;2.95;;;2.00;;
21297;SDS011;10808;48.010;11.326;2022-07-04T06:11:32;3.80;;;2.10;;
21297;SDS011;10808;48.010;11.326;2022-07-04T06:13:58;2.37;;;2.03;;
21297;SDS011;10808;48.010;11.326;2022-07-04T06:16:24;2.27;;;2.00;;
21297;SDS011;10808;48.010;11.326;2022-07-04T06:18:50;3.30;;;2.07;;
21297;SDS011;10808;48.010;11.326;2022-07-04T06:21:16;4.78;;;2.00;;
21297;SDS011;10808;48.010;11.326;2022-07-04T06:23:42;2.30;;;2.10;;
21297;SDS011;10808;48.010;11.326;2022-07-04T06:26:08;2.80;;;2.10;;
21297;SDS011;10808;48.010;11.326;2022-07-04T06:28:34;3.15;;;2.05;;
21297;SDS011;10808;48.010;11.326;2022-07-04T06:31:00;2.70;;;2.20;;
21297;SDS011;10808;48.010;11.326;2022-07-04T06:33:26;3.38;;;2.13;;
21297;SDS011;10808;48.010;11.326;2022-07-04T06:35:52;2.90;;;2.10;;
21297;SDS011;10808;48.010;11.326;2022-07-04T06:38:25;3.25;;;2.25;;
21297;SDS011;10808;48.010;11.326;2022-07-04T06:40:53;3.10;;;2.17;;
21297;SDS011;10808;48.010;11.326;2022-07-04T06:43:21;4.18;;;2.10;;
21297;SDS011;10808;48.010;11.326;2022-07-04T06:45:47;2.63;;;2.00;;
21297;SDS011;10808;48.010;11.326;2022-07-04T06:48:13;2.00;;;1.90;;
21297;SDS011;10808;48.010;11.326;2022-07-04T06:50:39;3.90;;;2.20;;
21297;SDS011;10808;48.010;11.326;2022-07-04T06:53:06;3.67;;;2.20;;
21297;SDS011;10808;48.010;11.326;2022-07-04T06:55:33;5.80;;;2.40;;
21297;SDS011;10808;48.010;11.326;2022-07-04T06:57:59;3.42;;;2.30;;
21297;SDS011;10808;48.010;11.326;2022-07-04T07:00:26;2.30;;;2.00;;
21297;SDS011;10808;48.010;11.326;2022-07-04T07:02:52;2.40;;;2.00;;
21297;SDS011;10808;48.010;11.326;2022-07-04T07:05:18;3.50;;;2.33;;
21297;SDS011;10808;48.010;11.326;2022-07-04T07:07:44;7.07;;;2.30;;
21297;SDS011;10808;48.010;11.326;2022-07-04T07:10:10;2.72;;;2.20;;
21297;SDS011;10808;48.010;11.326;2022-07-04T07:12:36;2.55;;;2.10;;
21297;SDS011;10808;48.010;11.326;2022-07-04T07:15:02;3.55;;;2.50;;
21297;SDS011;10808;48.010;11.326;2022-07-04T07:17:28;3.23;;;2.30;;
21297;SDS011;10808;48.010;11.326;2022-07-04T07:19:54;2.73;;;2.27;;
21297;SDS011;10808;48.010;11.326;2022-07-04T07:22:20;3.00;;;2.20;;
21297;SDS011;10808;48.010;11.326;2022-07-04T07:24:46;2.65;;;2.38;;
21297;SDS011;10808;48.010;11.326;2022-07-04T07:27:12;2.60;;;2.33;;
21297;SDS011;10808;48.010;11.326;2022-07-04T07:29:39;3.33;;;2.20;;
21297;SDS011;10808;48.010;11.326;2022-07-04T07:32:05;3.80;;;2.67;;
21297;SDS011;10808;48.010;11.326;2022-07-04T07:34:32;3.00;;;2.40;;
21297;SDS011;10808;48.010;11.326;2022-07-04T07:36:58;4.40;;;2.67;;
21297;SDS011;10808;48.010;11.326;2022-07-04T07:39:24;3.67;;;2.25;;
21297;SDS011;10808;48.010;11.326;2022-07-04T07:41:50;6.55;;;2.80;;
21297;SDS011;10808;48.010;11.326;2022-07-04T07:44:16;3.08;;;2.60;;
21297;SDS011;10808;48.010;11.326;2022-07-04T07:46:43;3.72;;;2.55;;
21297;SDS011;10808;48.010;11.326;2022-07-04T07:49:09;4.10;;;2.15;;
21297;SDS011;10808;48.010;11.326;2022-07-04T07:51:35;4.85;;;2.40;;
21297;SDS011;10808;48.010;11.326;2022-07-04T07:54:01;2.57;;;2.37;;
21297;SDS011;10808;48.010;11.326;2022-07-04T07:56:27;3.23;;;2.50;;
21297;SDS011;10808;48.010;11.326;2022-07-04T07:58:54;3.13;;;2.40;;
21297;SDS011;10808;48.010;11.326;2022-07-04T08:01:20;3.80;;;2.40;;
21297;SDS011;10808;48.010;11.326;2022-07-04T08:03:46;3.42;;;2.70;;
21297;SDS011;10808;48.010;11.326;2022-07-04T08:06:31;6.00;;;2.30;;
21297;SDS011;10808;48.010;11.326;2022-07-04T08:08:58;3.63;;;2.30;;
21297;SDS011;10808;48.010;11.326;2022-07-04T08:11:24;3.00;;;2.30;;
21297;SDS011;10808;48.010;11.326;2022-07-04T08:13:50;3.13;;;2.30;;
21297;SDS011;10808;48.010;11.326;2022-07-04T08:16:17;2.42;;;1.95;;
21297;SDS011;10808;48.010;11.326;2022-07-04T08:18:43;2.90;;;2.30;;
21297;SDS011;10808;48.010;11.326;2022-07-04T08:21:09;3.03;;;2.20;;
21297;SDS011;10808;48.010;11.326;2022-07-04T08:23:35;3.03;;;2.15;;
21297;SDS011;10808;48.010;11.326;2022-07-04T08:26:02;2.60;;;2.10;;
21297;SDS011;10808;48.010;11.326;2022-07-04T08:28:29;2.47;;;1.90;;
21297;SDS011;10808;48.010;11.326;2022-07-04T08:30:55;4.15;;;2.08;;
21297;SDS011;10808;48.010;11.326;2022-07-04T08:33:22;2.70;;;2.05;;
21297;SDS011;10808;48.010;11.326;2022-07-04T08:35:49;4.00;;;2.15;;
21297;SDS011;10808;48.010;11.326;2022-07-04T08:38:16;2.67;;;2.00;;
21297;SDS011;10808;48.010;11.326;2022-07-04T08:40:43;3.42;;;1.88;;
21297;SDS011;10808;48.010;11.326;2022-07-04T08:43:13;3.72;;;2.25;;
21297;SDS011;10808;48.010;11.326;2022-07-04T08:45:40;2.00;;;1.80;;
21297;SDS011;10808;48.010;11.326;2022-07-04T08:48:07;4.75;;;2.15;;
21297;SDS011;10808;48.010;11.326;2022-07-04T08:50:37;5.13;;;2.15;;
21297;SDS011;10808;48.010;11.326;2022-07-04T08:53:11;3.13;;;1.92;;
21297;SDS011;10808;48.010;11.326;2022-07-04T08:55:43;3.33;;;1.95;;
21297;SDS011;10808;48.010;11.326;2022-07-04T08:58:30;3.08;;;2.10;;
21297;SDS011;10808;48.010;11.326;2022-07-04T09:01:01;2.92;;;1.92;;
21297;SDS011;10808;48.010;11.326;2022-07-04T09:03:29;2.55;;;2.00;;
21297;SDS011;10808;48.010;11.326;2022-07-04T09:05:57;3.80;;;2.13;;
21297;SDS011;10808;48.010;11.326;2022-07-04T09:08:25;3.67;;;2.00;;
21297;SDS011;10808;48.010;11.326;2022-07-04T09:10:52;2.70;;;1.95;;
21297;SDS011;10808;48.010;11.326;2022-07-04T09:13:19;2.33;;;1.70;;
21297;SDS011;10808;48.010;11.326;2022-07-04T09:15:46;2.80;;;1.90;;
21297;SDS011;10808;48.010;11.326;2022-07-04T09:18:20;2.20;;;2.00;;
21297;SDS011;10808;48.010;11.326;2022-07-04T09:20:48;3.08;;;2.20;;
21297;SDS011;10808;48.010;11.326;2022-07-04T09:23:21;2.35;;;2.00;;
21297;SDS011;10808;48.010;11.326;2022-07-04T09:25:50;4.40;;;2.30;;
21297;SDS011;10808;48.010;11.326;2022-07-04T09:28:42;2.40;;;1.80;;
21297;SDS011;10808;48.010;11.326;2022-07-04T09:31:23;2.35;;;1.80;;
21297;SDS011;10808;48.010;11.326;2022-07-04T09:33:57;3.10;;;1.77;;
21297;SDS011;10808;48.010;11.326;2022-07-04T09:36:26;2.00;;;1.70;;
21297;SDS011;10808;48.010;11.326;2022-07-04T09:41:49;2.40;;;1.88;;
21297;SDS011;10808;48.010;11.326;2022-07-04T09:44:15;5.07;;;1.80;;
21297;SDS011;10808;48.010;11.326;2022-07-04T09:46:42;3.15;;;1.70;;
21297;SDS011;10808;48.010;11.326;2022-07-04T09:49:08;2.42;;;1.75;;
21297;SDS011;10808;48.010;11.326;2022-07-04T09:51:46;3.30;;;1.80;;
21297;SDS011;10808;48.010;11.326;2022-07-04T09:54:17;2.60;;;1.80;;
21297;SDS011;10808;48.010;11.326;2022-07-04T09:56:46;2.60;;;1.98;;
21297;SDS011;10808;48.010;11.326;2022-07-04T09:59:14;1.75;;;1.63;;
21297;SDS011;10808;48.010;11.326;2022-07-04T10:01:40;2.53;;;1.80;;
21297;SDS011;10808;48.010;11.326;2022-07-04T10:04:06;4.63;;;1.95;;
21297;SDS011;10808;48.010;11.326;2022-07-04T10:06:34;3.00;;;1.67;;
21297;SDS011;10808;48.010;11.326;2022-07-04T10:09:11;4.32;;;1.80;;
21297;SDS011;10808;48.010;11.326;2022-07-04T10:11:39;2.33;;;1.73;;
21297;SDS011;10808;48.010;11.326;2022-07-04T10:14:07;2.10;;;1.65;;
21297;SDS011;10808;48.010;11.326;2022-07-04T10:16:35;1.65;;;1.50;;
21297;SDS011;10808;48.010;11.326;2022-07-04T10:19:02;1.73;;;1.60;;
21297;SDS011;10808;48.010;11.326;2022-07-04T10:21:29;1.95;;;1.60;;
21297;SDS011;10808;48.010;11.326;2022-07-04T10:23:56;2.20;;;1.70;;
21297;SDS011;10808;48.010;11.326;2022-07-04T10:26:22;2.08;;;1.73;;
21297;SDS011;10808;48.010;11.326;2022-07-04T10:28:51;1.70;;;1.60;;
21297;SDS011;10808;48.010;11.326;2022-07-04T10:31:21;1.90;;;1.70;;
21297;SDS011;10808;48.010;11.326;2022-07-04T10:33:50;2.90;;;1.77;;
21297;SDS011;10808;48.010;11.326;2022-07-04T10:36:24;2.08;;;1.85;;
21297;SDS011;10808;48.010;11.326;2022-07-04T10:39:03;3.10;;;1.83;;
21297;SDS011;10808;48.010;11.326;2022-07-04T10:41:29;2.67;;;1.80;;
21297;SDS011;10808;48.010;11.326;2022-07-04T10:51:36;2.35;;;1.90;;
21297;SDS011;10808;48.010;11.326;2022-07-04T10:54:19;3.13;;;1.90;;
21297;SDS011;10808;48.010;11.326;2022-07-04T10:56:49;2.67;;;1.58;;
21297;SDS011;10808;48.010;11.326;2022-07-04T11:13:01;2.28;;;2.08;;
21297;SDS011;10808;48.010;11.326;2022-07-04T11:20:26;2.38;;;2.17;;
21297;SDS011;10808;48.010;11.326;2022-07-04T11:23:03;1.95;;;1.80;;
21297;SDS011;10808;48.010;11.326;2022-07-04T11:25:30;2.92;;;2.05;;
21297;SDS011;10808;48.010;11.326;2022-07-04T11:27:57;2.05;;;1.73;;
21297;SDS011;10808;48.010;11.326;2022-07-04T11:30:47;3.47;;;1.90;;
21297;SDS011;10808;48.010;11.326;2022-07-04T11:33:33;2.37;;;2.00;;
21297;SDS011;10808;48.010;11.326;2022-07-04T11:36:12;3.05;;;1.95;;
21297;SDS011;10808;48.010;11.326;2022-07-04T11:38:49;3.13;;;1.77;;
21297;SDS011;10808;48.010;11.326;2022-07-04T11:41:21;2.50;;;2.10;;
21297;SDS011;10808;48.010;11.326;2022-07-04T11:44:08;2.20;;;1.83;;
21297;SDS011;10808;48.010;11.326;2022-07-04T11:47:05;2.15;;;1.80;;
21297;SDS011;10808;48.010;11.326;2022-07-04T11:49:34;1.73;;;1.63;;
21297;SDS011;10808;48.010;11.326;2022-07-04T11:52:00;2.83;;;1.73;;
21297;SDS011;10808;48.010;11.326;2022-07-04T11:54:27;4.30;;;2.00;;
21297;SDS011;10808;48.010;11.326;2022-07-04T11:57:07;2.72;;;1.98;;
21297;SDS011;10808;48.010;11.326;2022-07-04T11:59:34;2.25;;;1.60;;
21297;SDS011;10808;48.010;11.326;2022-07-04T12:02:10;3.17;;;1.80;;
21297;SDS011;10808;48.010;11.326;2022-07-04T12:04:41;2.08;;;1.90;;
21297;SDS011;10808;48.010;11.326;2022-07-04T12:07:12;2.10;;;1.60;;
21297;SDS011;10808;48.010;11.326;2022-07-04T12:09:43;1.88;;;1.60;;
21297;SDS011;10808;48.010;11.326;2022-07-04T12:12:11;2.75;;;1.70;;
21297;SDS011;10808;48.010;11.326;2022-07-04T12:14:38;1.98;;;1.80;;
21297;SDS011;10808;48.010;11.326;2022-07-04T12:19:49;2.10;;;1.90;;
21297;SDS011;10808;48.010;11.326;2022-07-04T12:22:33;3.65;;;2.10;;
21297;SDS011;10808;48.010;11.326;2022-07-04T12:25:01;2.20;;;2.00;;
21297;SDS011;10808;48.010;11.326;2022-07-04T12:27:30;2.40;;;2.20;;
21297;SDS011;10808;48.010;11.326;2022-07-04T12:29:56;2.42;;;2.00;;
21297;SDS011;10808;48.010;11.326;2022-07-04T12:32:24;2.65;;;1.80;;
21297;SDS011;10808;48.010;11.326;2022-07-04T12:35:09;2.53;;;2.05;;
21297;SDS011;10808;48.010;11.326;2022-07-04T12:37:35;4.70;;;1.90;;
21297;SDS011;10808;48.010;11.326;2022-07-04T12:40:07;3.43;;;2.00;;
21297;SDS011;10808;48.010;11.326;2022-07-04T12:42:34;2.58;;;1.98;;
21297;SDS011;10808;48.010;11.326;2022-07-04T12:45:05;3.17;;;1.95;;
21297;SDS011;10808;48.010;11.326;2022-07-04T12:47:32;2.40;;;1.85;;
21297;SDS011;10808;48.010;11.326;2022-07-04T12:49:58;1.90;;;1.70;;
21297;SDS011;10808;48.010;11.326;2022-07-04T12:52:26;2.55;;;1.92;;
21297;SDS011;10808;48.010;11.326;2022-07-04T12:55:06;2.17;;;1.97;;
21297;SDS011;10808;48.010;11.326;2022-07-04T12:57:36;1.77;;;1.60;;
21297;SDS011;10808;48.010;11.326;2022-07-04T13:00:02;4.25;;;1.80;;
21297;SDS011;10808;48.010;11.326;2022-07-04T13:02:29;2.83;;;1.90;;
21297;SDS011;10808;48.010;11.326;2022-07-04T13:04:55;2.95;;;1.90;;
21297;SDS011;10808;48.010;11.326;2022-07-04T13:07:22;2.67;;;2.20;;
21297;SDS011;10808;48.010;11.326;2022-07-04T13:09:48;3.55;;;1.90;;
21297;SDS011;10808;48.010;11.326;2022-07-04T13:12:14;2.90;;;2.05;;
21297;SDS011;10808;48.010;11.326;2022-07-04T13:14:56;3.63;;;1.92;;
21297;SDS011;10808;48.010;11.326;2022-07-04T13:17:23;2.47;;;1.90;;
21297;SDS011;10808;48.010;11.326;2022-07-04T13:19:50;2.75;;;1.95;;
21297;SDS011;10808;48.010;11.326;2022-07-04T13:22:20;2.88;;;1.88;;
21297;SDS011;10808;48.010;11.326;2022-07-04T13:24:47;2.58;;;1.75;;
21297;SDS011;10808;48.010;11.326;2022-07-04T13:27:15;2.40;;;1.85;;
21297;SDS011;10808;48.010;11.326;2022-07-04T13:29:41;2.38;;;1.88;;
21297;SDS011;10808;48.010;11.326;2022-07-04T13:32:07;3.60;;;2.00;;
21297;SDS011;10808;48.010;11.326;2022-07-04T13:34:34;3.03;;;1.98;;
21297;SDS011;10808;48.010;11.326;2022-07-04T13:37:01;2.20;;;1.77;;
21297;SDS011;10808;48.010;11.326;2022-07-04T13:39:28;2.25;;;1.85;;
21297;SDS011;10808;48.010;11.326;2022-07-04T13:41:54;3.33;;;1.90;;
21297;SDS011;10808;48.010;11.326;2022-07-04T13:44:20;2.58;;;1.80;;
21297;SDS011;10808;48.010;11.326;2022-07-04T13:46:47;2.65;;;1.65;;
21297;SDS011;10808;48.010;11.326;2022-07-04T13:49:13;2.10;;;1.80;;
21297;SDS011;10808;48.010;11.326;2022-07-04T13:51:39;2.92;;;1.80;;
21297;SDS011;10808;48.010;11.326;2022-07-04T13:54:06;4.20;;;1.80;;
21297;SDS011;10808;48.010;11.326;2022-07-04T13:56:33;2.90;;;1.80;;
21297;SDS011;10808;48.010;11.326;2022-07-04T13:59:00;3.73;;;1.80;;
21297;SDS011;10808;48.010;11.326;2022-07-04T14:01:26;2.47;;;1.70;;
21297;SDS011;10808;48.010;11.326;2022-07-04T14:03:52;3.20;;;1.63;;
21297;SDS011;10808;48.010;11.326;2022-07-04T14:06:18;2.00;;;1.73;;
21297;SDS011;10808;48.010;11.326;2022-07-04T14:08:45;2.00;;;1.80;;
21297;SDS011;10808;48.010;11.326;2022-07-04T14:11:11;2.97;;;1.85;;
21297;SDS011;10808;48.010;11.326;2022-07-04T14:13:37;4.20;;;1.83;;
21297;SDS011;10808;48.010;11.326;2022-07-04T14:16:04;2.17;;;1.80;;
21297;SDS011;10808;48.010;11.326;2022-07-04T14:18:32;3.90;;;2.17;;
21297;SDS011;10808;48.010;11.326;2022-07-04T14:20:58;3.50;;;1.90;;
21297;SDS011;10808;48.010;11.326;2022-07-04T14:23:24;3.53;;;1.90;;
21297;SDS011;10808;48.010;11.326;2022-07-04T14:26:06;2.05;;;1.70;;
21297;SDS011;10808;48.010;11.326;2022-07-04T14:28:33;3.35;;;1.70;;
21297;SDS011;10808;48.010;11.326;2022-07-04T14:30:59;2.00;;;1.60;;
21297;SDS011;10808;48.010;11.326;2022-07-04T14:33:25;2.10;;;1.52;;
21297;SDS011;10808;48.010;11.326;2022-07-04T14:35:52;2.72;;;1.80;;
21297;SDS011;10808;48.010;11.326;2022-07-04T14:38:18;2.17;;;1.85;;
21297;SDS011;10808;48.010;11.326;2022-07-04T14:40:44;2.45;;;1.40;;
21297;SDS011;10808;48.010;11.326;2022-07-04T14:43:14;1.98;;;1.67;;
21297;SDS011;10808;48.010;11.326;2022-07-04T14:45:40;2.85;;;1.83;;
21297;SDS011;10808;48.010;11.326;2022-07-04T14:48:06;3.35;;;1.80;;
21297;SDS011;10808;48.010;11.326;2022-07-04T14:50:33;2.10;;;1.60;;
21297;SDS011;10808;48.010;11.326;2022-07-04T14:52:59;2.80;;;2.00;;
21297;SDS011;10808;48.010;11.326;2022-07-04T14:55:25;2.33;;;1.65;;
21297;SDS011;10808;48.010;11.326;2022-07-04T14:57:51;3.30;;;1.83;;
21297;SDS011;10808;48.010;11.326;2022-07-04T15:00:17;2.15;;;1.70;;
21297;SDS011;10808;48.010;11.326;2022-07-04T15:02:43;2.53;;;1.80;;
21297;SDS011;10808;48.010;11.326;2022-07-04T15:05:12;3.03;;;1.70;;
21297;SDS011;10808;48.010;11.326;2022-07-04T15:07:38;2.72;;;1.77;;
21297;SDS011;10808;48.010;11.326;2022-07-04T15:10:07;3.22;;;1.70;;
21297;SDS011;10808;48.010;11.326;2022-07-04T15:12:34;2.88;;;1.80;;
21297;SDS011;10808;48.010;11.326;2022-07-04T15:15:00;3.30;;;1.90;;
21297;SDS011;10808;48.010;11.326;2022-07-04T15:17:26;3.27;;;1.63;;
21297;SDS011;10808;48.010;11.326;2022-07-04T15:19:52;1.63;;;1.40;;
21297;SDS011;10808;48.010;11.326;2022-07-04T15:22:36;3.22;;;1.67;;
21297;SDS011;10808;48.010;11.326;2022-07-04T15:25:21;1.90;;;1.50;;
21297;SDS011;10808;48.010;11.326;2022-07-04T15:27:47;2.60;;;1.80;;
21297;SDS011;10808;48.010;11.326;2022-07-04T15:30:13;3.42;;;1.70;;
21297;SDS011;10808;48.010;11.326;2022-07-04T15:32:39;3.05;;;1.70;;
21297;SDS011;10808;48.010;11.326;2022-07-04T15:35:05;4.00;;;1.60;;
21297;SDS011;10808;48.010;11.326;2022-07-04T15:37:31;2.33;;;1.83;;
21297;SDS011;10808;48.010;11.326;2022-07-04T15:39:57;2.43;;;1.80;;
21297;SDS011;10808;48.010;11.326;2022-07-04T15:42:23;4.90;;;2.00;;
21297;SDS011;10808;48.010;11.326;2022-07-04T15:44:49;5.82;;;1.88;;
21297;SDS011;10808;48.010;11.326;2022-07-04T15:47:15;3.85;;;1.90;;